sensor_id;sensor_type;location;lat;lon;timestamp;pressure;altitude;pressure_sealevel;temperature;humidity
80682;BME280;70045;40.200;44.582;2023-11-22T00:01:41;86616.19;;;6.29;40.21
80682;BME280;70045;40.200;44.582;2023-11-22T00:04:07;86606.25;;;6.38;40.17
80682;BME280;70045;40.200;44.582;2023-11-22T00:06:32;86598.53;;;6.31;39.70
80682;BME280;70045;40.200;44.582;2023-11-22T00:08:57;86608.09;;;6.23;40.24
80682;BME280;70045;40.200;44.582;2023-11-22T00:11:23;86622.06;;;6.26;40.20
80682;BME280;70045;40.200;44.582;2023-11-22T00:13:51;86619.50;;;6.29;39.36
80682;BME280;70045;40.200;44.582;2023-11-22T00:16:16;86610.31;;;6.17;40.34
80682;BME280;70045;40.200;44.582;2023-11-22T00:18:42;86625.75;;;5.99;40.10
80682;BME280;70045;40.200;44.582;2023-11-22T00:21:07;86622.75;;;5.87;40.58
80682;BME280;70045;40.200;44.582;2023-11-22T00:23:32;86616.13;;;5.78;40.94
80682;BME280;70045;40.200;44.582;2023-11-22T00:26:01;86623.06;;;5.67;41.28
80682;BME280;70045;40.200;44.582;2023-11-22T00:28:26;86620.84;;;5.58;40.58
80682;BME280;70045;40.200;44.582;2023-11-22T00:30:51;86632.22;;;5.54;41.07
80682;BME280;70045;40.200;44.582;2023-11-22T00:33:17;86639.56;;;5.48;42.10
80682;BME280;70045;40.200;44.582;2023-11-22T00:35:42;86646.16;;;5.38;41.95
80682;BME280;70045;40.200;44.582;2023-11-22T00:38:10;86643.56;;;5.35;42.01
80682;BME280;70045;40.200;44.582;2023-11-22T00:40:36;86646.50;;;5.33;42.49
80682;BME280;70045;40.200;44.582;2023-11-22T00:43:01;86649.78;;;5.30;42.51
80682;BME280;70045;40.200;44.582;2023-11-22T00:45:26;86647.56;;;5.25;42.71
80682;BME280;70045;40.200;44.582;2023-11-22T00:47:52;86650.47;;;5.16;42.40
80682;BME280;70045;40.200;44.582;2023-11-22T00:50:20;86648.94;;;5.08;43.14
80682;BME280;70045;40.200;44.582;2023-11-22T00:52:46;86641.59;;;5.03;43.88
80682;BME280;70045;40.200;44.582;2023-11-22T00:55:12;86644.13;;;4.99;43.33
80682;BME280;70045;40.200;44.582;2023-11-22T00:57:38;86645.63;;;5.00;43.61
80682;BME280;70045;40.200;44.582;2023-11-22T01:00:05;86645.22;;;4.95;43.66
80682;BME280;70045;40.200;44.582;2023-11-22T01:02:33;86643.03;;;4.93;42.97
80682;BME280;70045;40.200;44.582;2023-11-22T01:04:58;86640.06;;;4.91;43.61
80682;BME280;70045;40.200;44.582;2023-11-22T01:07:24;86642.28;;;4.93;43.31
80682;BME280;70045;40.200;44.582;2023-11-22T01:09:49;86643.41;;;4.95;43.12
80682;BME280;70045;40.200;44.582;2023-11-22T01:12:15;86642.28;;;4.96;43.05
80682;BME280;70045;40.200;44.582;2023-11-22T01:14:43;86641.53;;;4.88;44.10
80682;BME280;70045;40.200;44.582;2023-11-22T01:17:08;86650.28;;;4.84;44.42
80682;BME280;70045;40.200;44.582;2023-11-22T01:19:33;86649.91;;;4.78;45.02
80682;BME280;70045;40.200;44.582;2023-11-22T01:21:59;86657.59;;;4.78;43.86
80682;BME280;70045;40.200;44.582;2023-11-22T01:24:24;86659.06;;;4.76;44.22
80682;BME280;70045;40.200;44.582;2023-11-22T01:26:52;86656.88;;;4.78;44.83
80682;BME280;70045;40.200;44.582;2023-11-22T01:29:18;86660.53;;;4.77;44.63
80682;BME280;70045;40.200;44.582;2023-11-22T01:31:43;86667.13;;;4.70;44.24
80682;BME280;70045;40.200;44.582;2023-11-22T01:34:08;86665.56;;;4.59;45.38
80682;BME280;70045;40.200;44.582;2023-11-22T01:36:34;86665.53;;;4.51;44.53
80682;BME280;70045;40.200;44.582;2023-11-22T01:39:02;86673.59;;;4.50;46.17
80682;BME280;70045;40.200;44.582;2023-11-22T01:41:27;86675.78;;;4.48;45.82
80682;BME280;70045;40.200;44.582;2023-11-22T01:43:53;86678.66;;;4.43;45.60
80682;BME280;70045;40.200;44.582;2023-11-22T01:46:23;86678.22;;;4.33;46.17
80682;BME280;70045;40.200;44.582;2023-11-22T01:48:48;86686.28;;;4.36;45.71
80682;BME280;70045;40.200;44.582;2023-11-22T01:51:16;86684.78;;;4.27;45.65
80682;BME280;70045;40.200;44.582;2023-11-22T01:53:42;86687.19;;;4.09;47.11
80682;BME280;70045;40.200;44.582;2023-11-22T01:56:07;86693.03;;;4.06;46.87
80682;BME280;70045;40.200;44.582;2023-11-22T01:58:33;86693.44;;;4.12;47.08
80682;BME280;70045;40.200;44.582;2023-11-22T02:00:59;86697.88;;;4.15;46.54
80682;BME280;70045;40.200;44.582;2023-11-22T02:03:28;86694.22;;;4.20;45.73
80682;BME280;70045;40.200;44.582;2023-11-22T02:05:53;86708.56;;;4.24;46.55
80682;BME280;70045;40.200;44.582;2023-11-22T02:08:19;86702.00;;;4.30;45.92
80682;BME280;70045;40.200;44.582;2023-11-22T02:10:44;86706.44;;;4.33;45.70
80682;BME280;70045;40.200;44.582;2023-11-22T02:13:09;86707.19;;;4.34;45.73
80682;BME280;70045;40.200;44.582;2023-11-22T02:15:37;86709.72;;;4.30;46.04
80682;BME280;70045;40.200;44.582;2023-11-22T02:18:04;86701.91;;;4.16;46.44
80682;BME280;70045;40.200;44.582;2023-11-22T02:20:32;86695.22;;;4.08;46.12
80682;BME280;70045;40.200;44.582;2023-11-22T02:23:08;86695.91;;;4.01;46.73
80682;BME280;70045;40.200;44.582;2023-11-22T02:25:34;86703.31;;;4.06;46.68
80682;BME280;70045;40.200;44.582;2023-11-22T02:28:02;86706.28;;;4.12;46.52
80682;BME280;70045;40.200;44.582;2023-11-22T02:30:28;86702.28;;;4.18;45.48
80682;BME280;70045;40.200;44.582;2023-11-22T02:32:53;86702.31;;;4.22;45.25
80682;BME280;70045;40.200;44.582;2023-11-22T02:35:19;86696.44;;;4.21;45.30
80682;BME280;70045;40.200;44.582;2023-11-22T02:37:44;86699.81;;;4.25;45.15
80682;BME280;70045;40.200;44.582;2023-11-22T02:40:19;86701.22;;;4.23;45.48
80682;BME280;70045;40.200;44.582;2023-11-22T02:42:46;86695.72;;;4.21;45.29
80682;BME280;70045;40.200;44.582;2023-11-22T02:45:12;86707.88;;;4.27;44.93
80682;BME280;70045;40.200;44.582;2023-11-22T02:47:37;86713.75;;;4.28;44.48
80682;BME280;70045;40.200;44.582;2023-11-22T02:50:03;86716.69;;;4.30;44.65
80682;BME280;70045;40.200;44.582;2023-11-22T02:52:32;86718.50;;;4.26;44.96
80682;BME280;70045;40.200;44.582;2023-11-22T02:54:58;86723.59;;;4.22;45.19
80682;BME280;70045;40.200;44.582;2023-11-22T02:57:23;86730.19;;;4.23;45.35
80682;BME280;70045;40.200;44.582;2023-11-22T02:59:49;86734.25;;;4.24;46.30
80682;BME280;70045;40.200;44.582;2023-11-22T03:02:14;86730.09;;;4.12;45.54
80682;BME280;70045;40.200;44.582;2023-11-22T03:04:42;86738.44;;;4.02;46.32
80682;BME280;70045;40.200;44.582;2023-11-22T03:07:08;86739.13;;;3.99;45.79
80682;BME280;70045;40.200;44.582;2023-11-22T03:09:33;86747.50;;;3.92;46.30
80682;BME280;70045;40.200;44.582;2023-11-22T03:11:59;86743.41;;;3.88;46.34
80682;BME280;70045;40.200;44.582;2023-11-22T03:14:24;86749.94;;;3.82;47.00
80682;BME280;70045;40.200;44.582;2023-11-22T03:16:52;86758.69;;;3.77;46.55
80682;BME280;70045;40.200;44.582;2023-11-22T03:19:17;86754.91;;;3.67;46.55
80682;BME280;70045;40.200;44.582;2023-11-22T03:21:43;86762.19;;;3.62;47.30
80682;BME280;70045;40.200;44.582;2023-11-22T03:24:08;86768.00;;;3.58;47.03
80682;BME280;70045;40.200;44.582;2023-11-22T03:26:34;86767.22;;;3.54;46.83
80682;BME280;70045;40.200;44.582;2023-11-22T03:29:02;86772.66;;;3.49;48.14
80682;BME280;70045;40.200;44.582;2023-11-22T03:31:28;86775.22;;;3.49;47.23
80682;BME280;70045;40.200;44.582;2023-11-22T03:33:54;86775.56;;;3.48;46.59
80682;BME280;70045;40.200;44.582;2023-11-22T03:36:20;86774.47;;;3.49;47.23
80682;BME280;70045;40.200;44.582;2023-11-22T03:38:46;86774.47;;;3.49;47.05
80682;BME280;70045;40.200;44.582;2023-11-22T03:41:14;86778.22;;;3.55;46.95
80682;BME280;70045;40.200;44.582;2023-11-22T03:43:39;86779.75;;;3.60;46.48
80682;BME280;70045;40.200;44.582;2023-11-22T03:46:05;86778.38;;;3.69;46.36
80682;BME280;70045;40.200;44.582;2023-11-22T03:48:30;86789.41;;;3.70;45.73
80682;BME280;70045;40.200;44.582;2023-11-22T03:50:56;86804.09;;;3.76;46.05
80682;BME280;70045;40.200;44.582;2023-11-22T03:53:24;86803.78;;;3.82;46.38
80682;BME280;70045;40.200;44.582;2023-11-22T03:55:49;86799.06;;;3.84;46.65
80682;BME280;70045;40.200;44.582;2023-11-22T03:58:15;86807.16;;;3.86;46.08
80682;BME280;70045;40.200;44.582;2023-11-22T04:00:41;86812.72;;;3.91;45.51
80682;BME280;70045;40.200;44.582;2023-11-22T04:03:08;86816.03;;;3.95;45.12
80682;BME280;70045;40.200;44.582;2023-11-22T04:05:36;86815.34;;;3.99;44.41
80682;BME280;70045;40.200;44.582;2023-11-22T04:08:01;86821.22;;;3.99;45.06
80682;BME280;70045;40.200;44.582;2023-11-22T04:10:27;86819.03;;;3.98;44.59
80682;BME280;70045;40.200;44.582;2023-11-22T04:12:52;86816.13;;;4.03;45.00
80682;BME280;70045;40.200;44.582;2023-11-22T04:15:17;86817.22;;;4.02;44.10
80682;BME280;70045;40.200;44.582;2023-11-22T04:17:45;86791.72;;;3.82;44.63
80682;BME280;70045;40.200;44.582;2023-11-22T04:20:11;86820.19;;;4.04;43.93
80682;BME280;70045;40.200;44.582;2023-11-22T04:22:36;86826.03;;;4.04;44.17
80682;BME280;70045;40.200;44.582;2023-11-22T04:25:02;86830.84;;;4.09;44.14
80682;BME280;70045;40.200;44.582;2023-11-22T04:27:28;86821.75;;;4.12;44.49
80682;BME280;70045;40.200;44.582;2023-11-22T04:29:56;86821.81;;;4.19;44.81
80682;BME280;70045;40.200;44.582;2023-11-22T04:32:21;86821.50;;;4.24;44.10
80682;BME280;70045;40.200;44.582;2023-11-22T04:34:47;86797.56;;;4.17;44.01
80682;BME280;70045;40.200;44.582;2023-11-22T04:37:12;86828.25;;;4.40;44.36
80682;BME280;70045;40.200;44.582;2023-11-22T04:39:38;86819.53;;;4.48;44.13
80682;BME280;70045;40.200;44.582;2023-11-22T04:42:08;86828.41;;;4.58;43.75
80682;BME280;70045;40.200;44.582;2023-11-22T04:44:33;86820.41;;;4.63;43.82
80682;BME280;70045;40.200;44.582;2023-11-22T04:46:59;86819.72;;;4.69;43.48
80682;BME280;70045;40.200;44.582;2023-11-22T04:49:24;86819.78;;;4.77;43.86
80682;BME280;70045;40.200;44.582;2023-11-22T04:51:50;86816.88;;;4.82;43.81
80682;BME280;70045;40.200;44.582;2023-11-22T04:54:18;86825.03;;;4.91;43.87
80682;BME280;70045;40.200;44.582;2023-11-22T04:56:43;86830.25;;;4.98;43.84
80682;BME280;70045;40.200;44.582;2023-11-22T04:59:09;86834.34;;;5.10;43.54
80682;BME280;70045;40.200;44.582;2023-11-22T05:01:35;86841.03;;;5.18;43.08
80682;BME280;70045;40.200;44.582;2023-11-22T05:04:01;86843.28;;;5.27;42.44
80682;BME280;70045;40.200;44.582;2023-11-22T05:06:29;86843.38;;;5.38;42.44
80682;BME280;70045;40.200;44.582;2023-11-22T05:08:54;86843.06;;;5.46;42.88
80682;BME280;70045;40.200;44.582;2023-11-22T05:11:23;86845.72;;;5.57;42.07
80682;BME280;70045;40.200;44.582;2023-11-22T05:13:48;86845.41;;;5.66;41.60
80682;BME280;70045;40.200;44.582;2023-11-22T05:16:14;86839.97;;;5.82;41.80
80682;BME280;70045;40.200;44.582;2023-11-22T05:18:42;86843.69;;;5.95;41.19
80682;BME280;70045;40.200;44.582;2023-11-22T05:21:07;86840.47;;;6.06;41.01
80682;BME280;70045;40.200;44.582;2023-11-22T05:23:33;86843.44;;;6.11;40.69
80682;BME280;70045;40.200;44.582;2023-11-22T05:25:58;86834.25;;;6.17;40.08
80682;BME280;70045;40.200;44.582;2023-11-22T05:28:24;86834.28;;;6.25;39.66
80682;BME280;70045;40.200;44.582;2023-11-22T05:30:52;86847.94;;;6.29;40.26
80682;BME280;70045;40.200;44.582;2023-11-22T05:33:17;86854.56;;;6.33;40.06
80682;BME280;70045;40.200;44.582;2023-11-22T05:35:42;86856.00;;;6.24;39.96
80682;BME280;70045;40.200;44.582;2023-11-22T05:38:08;86863.34;;;6.21;40.16
80682;BME280;70045;40.200;44.582;2023-11-22T05:40:34;86870.31;;;6.21;40.00
80682;BME280;70045;40.200;44.582;2023-11-22T05:43:02;86877.31;;;6.20;39.38
80682;BME280;70045;40.200;44.582;2023-11-22T05:45:27;86886.13;;;6.19;39.99
80682;BME280;70045;40.200;44.582;2023-11-22T05:47:53;86894.97;;;6.18;39.28
80682;BME280;70045;40.200;44.582;2023-11-22T05:50:18;86889.84;;;6.26;39.88
80682;BME280;70045;40.200;44.582;2023-11-22T05:52:44;86889.88;;;6.33;39.17
80682;BME280;70045;40.200;44.582;2023-11-22T05:55:12;86883.63;;;6.34;38.90
80682;BME280;70045;40.200;44.582;2023-11-22T05:57:37;86888.44;;;6.43;39.21
80682;BME280;70045;40.200;44.582;2023-11-22T06:00:03;86895.84;;;6.51;39.54
80682;BME280;70045;40.200;44.582;2023-11-22T06:02:29;86894.38;;;6.57;39.15
80682;BME280;70045;40.200;44.582;2023-11-22T06:04:54;86893.66;;;6.60;38.99
80682;BME280;70045;40.200;44.582;2023-11-22T06:07:23;86898.81;;;6.68;38.54
80682;BME280;70045;40.200;44.582;2023-11-22T06:09:48;86895.91;;;6.73;38.62
80682;BME280;70045;40.200;44.582;2023-11-22T06:12:14;86898.13;;;6.78;38.05
80682;BME280;70045;40.200;44.582;2023-11-22T06:14:39;86909.16;;;6.82;38.02
80682;BME280;70045;40.200;44.582;2023-11-22T06:17:05;86916.53;;;6.84;37.54
80682;BME280;70045;40.200;44.582;2023-11-22T06:19:34;86915.09;;;6.86;38.28
80682;BME280;70045;40.200;44.582;2023-11-22T06:22:00;86917.31;;;6.91;37.28
80682;BME280;70045;40.200;44.582;2023-11-22T06:24:25;86925.78;;;6.95;37.86
80682;BME280;70045;40.200;44.582;2023-11-22T06:26:51;86927.66;;;7.02;37.76
80682;BME280;70045;40.200;44.582;2023-11-22T06:29:16;86926.94;;;7.12;37.97
80682;BME280;70045;40.200;44.582;2023-11-22T06:31:44;86932.81;;;7.13;38.42
80682;BME280;70045;40.200;44.582;2023-11-22T06:34:09;86924.00;;;7.21;38.08
80682;BME280;70045;40.200;44.582;2023-11-22T06:36:35;86930.66;;;7.29;38.25
80682;BME280;70045;40.200;44.582;2023-11-22T06:39:00;86929.53;;;7.38;37.94
80682;BME280;70045;40.200;44.582;2023-11-22T06:41:26;86935.81;;;7.37;37.55
80682;BME280;70045;40.200;44.582;2023-11-22T06:43:54;86936.19;;;7.42;37.22
80682;BME280;70045;40.200;44.582;2023-11-22T06:46:19;86938.03;;;7.49;36.94
80682;BME280;70045;40.200;44.582;2023-11-22T06:48:45;86944.69;;;7.61;36.86
80682;BME280;70045;40.200;44.582;2023-11-22T06:51:10;86949.84;;;7.68;36.05
80682;BME280;70045;40.200;44.582;2023-11-22T06:53:35;86955.00;;;7.71;35.85
80682;BME280;70045;40.200;44.582;2023-11-22T06:56:04;86953.16;;;7.72;36.20
80682;BME280;70045;40.200;44.582;2023-11-22T06:58:29;86948.38;;;7.60;36.62
80682;BME280;70045;40.200;44.582;2023-11-22T07:00:55;86953.53;;;7.63;36.64
80682;BME280;70045;40.200;44.582;2023-11-22T07:03:20;86939.13;;;7.48;36.67
80682;BME280;70045;40.200;44.582;2023-11-22T07:05:45;86950.94;;;7.56;36.93
80682;BME280;70045;40.200;44.582;2023-11-22T07:08:14;86948.00;;;7.72;36.34
80682;BME280;70045;40.200;44.582;2023-11-22T07:10:39;86949.50;;;7.80;37.38
80682;BME280;70045;40.200;44.582;2023-11-22T07:13:04;86945.44;;;7.94;36.88
80682;BME280;70045;40.200;44.582;2023-11-22T07:15:30;86944.31;;;7.95;36.50
80682;BME280;70045;40.200;44.582;2023-11-22T07:17:55;86949.09;;;8.00;36.74
80682;BME280;70045;40.200;44.582;2023-11-22T07:20:23;86955.41;;;7.95;36.81
80682;BME280;70045;40.200;44.582;2023-11-22T07:22:49;86959.06;;;8.01;35.81
80682;BME280;70045;40.200;44.582;2023-11-22T07:25:14;86962.00;;;8.03;36.63
80682;BME280;70045;40.200;44.582;2023-11-22T07:27:40;86963.13;;;8.13;36.33
80682;BME280;70045;40.200;44.582;2023-11-22T07:30:06;86934.38;;;8.00;36.49
80682;BME280;70045;40.200;44.582;2023-11-22T07:32:34;86957.22;;;8.20;36.28
80682;BME280;70045;40.200;44.582;2023-11-22T07:35:00;86960.88;;;8.33;35.75
80682;BME280;70045;40.200;44.582;2023-11-22T07:37:25;86959.03;;;8.41;35.22
80682;BME280;70045;40.200;44.582;2023-11-22T07:39:50;86957.16;;;8.41;34.97
80682;BME280;70045;40.200;44.582;2023-11-22T07:42:16;86958.69;;;8.42;34.57
80682;BME280;70045;40.200;44.582;2023-11-22T07:44:44;86963.84;;;8.50;35.01
80682;BME280;70045;40.200;44.582;2023-11-22T07:47:10;86962.34;;;8.56;34.82
80682;BME280;70045;40.200;44.582;2023-11-22T07:49:38;86951.97;;;8.66;34.57
80682;BME280;70045;40.200;44.582;2023-11-22T07:52:04;86956.38;;;8.80;35.09
80682;BME280;70045;40.200;44.582;2023-11-22T07:54:30;86943.75;;;8.97;34.54
80682;BME280;70045;40.200;44.582;2023-11-22T07:56:58;86954.72;;;9.22;33.69
80682;BME280;70045;40.200;44.582;2023-11-22T07:59:24;86952.50;;;10.29;33.10
80682;BME280;70045;40.200;44.582;2023-11-22T08:01:49;86924.78;;;11.87;31.15
80682;BME280;70045;40.200;44.582;2023-11-22T08:04:15;86943.00;;;13.22;26.49
80682;BME280;70045;40.200;44.582;2023-11-22T08:06:40;86940.28;;;14.35;28.56
80682;BME280;70045;40.200;44.582;2023-11-22T08:09:09;86933.34;;;15.07;26.02
80682;BME280;70045;40.200;44.582;2023-11-22T08:11:34;86930.81;;;15.75;26.77
80682;BME280;70045;40.200;44.582;2023-11-22T08:14:00;86922.22;;;16.38;25.98
80682;BME280;70045;40.200;44.582;2023-11-22T08:16:26;86921.66;;;17.04;23.27
80682;BME280;70045;40.200;44.582;2023-11-22T08:18:51;86911.53;;;17.60;25.11
80682;BME280;70045;40.200;44.582;2023-11-22T08:21:19;86914.97;;;18.01;23.99
80682;BME280;70045;40.200;44.582;2023-11-22T08:23:48;86915.09;;;18.29;21.19
80682;BME280;70045;40.200;44.582;2023-11-22T08:26:14;86914.75;;;18.67;23.63
80682;BME280;70045;40.200;44.582;2023-11-22T08:28:39;86908.47;;;18.74;21.54
80682;BME280;70045;40.200;44.582;2023-11-22T08:31:05;86910.63;;;18.57;20.13
80682;BME280;70045;40.200;44.582;2023-11-22T08:33:33;86907.50;;;18.90;22.16
80682;BME280;70045;40.200;44.582;2023-11-22T08:35:58;86895.25;;;19.33;22.23
80682;BME280;70045;40.200;44.582;2023-11-22T08:38:24;86883.38;;;19.74;20.52
80682;BME280;70045;40.200;44.582;2023-11-22T08:40:50;86901.34;;;20.19;19.49
80682;BME280;70045;40.200;44.582;2023-11-22T08:43:15;86901.75;;;19.93;21.89
80682;BME280;70045;40.200;44.582;2023-11-22T08:45:43;86881.34;;;19.42;18.59
80682;BME280;70045;40.200;44.582;2023-11-22T08:48:09;86903.28;;;19.29;21.46
80682;BME280;70045;40.200;44.582;2023-11-22T08:50:35;86893.94;;;19.37;17.99
80682;BME280;70045;40.200;44.582;2023-11-22T08:53:00;86898.59;;;20.13;20.64
80682;BME280;70045;40.200;44.582;2023-11-22T08:55:26;86898.28;;;20.54;18.61
80682;BME280;70045;40.200;44.582;2023-11-22T08:57:54;86894.09;;;20.95;16.84
80682;BME280;70045;40.200;44.582;2023-11-22T09:00:19;86897.13;;;21.42;17.03
80682;BME280;70045;40.200;44.582;2023-11-22T09:02:45;86886.56;;;21.51;19.49
80682;BME280;70045;40.200;44.582;2023-11-22T09:05:10;86888.84;;;21.88;18.02
80682;BME280;70045;40.200;44.582;2023-11-22T09:07:36;86890.84;;;22.08;19.00
80682;BME280;70045;40.200;44.582;2023-11-22T09:10:05;86887.72;;;22.10;17.62
80682;BME280;70045;40.200;44.582;2023-11-22T09:12:31;86887.13;;;21.70;17.26
80682;BME280;70045;40.200;44.582;2023-11-22T09:14:56;86882.81;;;21.73;17.30
80682;BME280;70045;40.200;44.582;2023-11-22T09:17:21;86877.16;;;22.10;17.80
80682;BME280;70045;40.200;44.582;2023-11-22T09:19:47;86876.59;;;22.35;17.79
80682;BME280;70045;40.200;44.582;2023-11-22T09:22:15;86867.19;;;23.05;16.89
80682;BME280;70045;40.200;44.582;2023-11-22T09:24:40;86870.31;;;23.04;16.59
80682;BME280;70045;40.200;44.582;2023-11-22T09:27:06;86873.16;;;23.00;16.78
80682;BME280;70045;40.200;44.582;2023-11-22T09:29:31;86861.72;;;21.58;16.36
80682;BME280;70045;40.200;44.582;2023-11-22T09:31:57;86869.72;;;18.87;18.94
80682;BME280;70045;40.200;44.582;2023-11-22T09:34:25;86874.03;;;16.97;20.85
80682;BME280;70045;40.200;44.582;2023-11-22T09:36:51;86873.47;;;15.42;22.15
80682;BME280;70045;40.200;44.582;2023-11-22T09:39:16;86884.44;;;14.95;22.96
80682;BME280;70045;40.200;44.582;2023-11-22T09:41:41;86873.75;;;14.60;22.68
80682;BME280;70045;40.200;44.582;2023-11-22T09:44:07;86870.84;;;14.41;23.69
80682;BME280;70045;40.200;44.582;2023-11-22T09:46:35;86878.03;;;13.88;23.81
80682;BME280;70045;40.200;44.582;2023-11-22T09:49:04;86874.91;;;13.60;25.00
80682;BME280;70045;40.200;44.582;2023-11-22T09:51:35;86884.25;;;13.21;24.95
80682;BME280;70045;40.200;44.582;2023-11-22T09:54:06;86880.88;;;12.84;25.23
80682;BME280;70045;40.200;44.582;2023-11-22T09:56:31;86869.25;;;12.69;25.84
80682;BME280;70045;40.200;44.582;2023-11-22T09:59:00;86881.34;;;12.79;26.12
80682;BME280;70045;40.200;44.582;2023-11-22T10:01:27;86879.31;;;12.47;25.93
80682;BME280;70045;40.200;44.582;2023-11-22T10:03:54;86881.34;;;12.15;26.88
80682;BME280;70045;40.200;44.582;2023-11-22T10:06:20;86868.09;;;11.82;27.03
80682;BME280;70045;40.200;44.582;2023-11-22T10:08:46;86873.19;;;11.62;27.50
80682;BME280;70045;40.200;44.582;2023-11-22T10:11:17;86872.31;;;11.73;27.25
80682;BME280;70045;40.200;44.582;2023-11-22T10:13:43;86863.47;;;11.66;27.51
80682;BME280;70045;40.200;44.582;2023-11-22T10:16:13;86863.53;;;11.63;27.26
80682;BME280;70045;40.200;44.582;2023-11-22T10:18:43;86855.63;;;11.46;27.23
80682;BME280;70045;40.200;44.582;2023-11-22T10:21:27;86858.72;;;11.38;28.20
80682;BME280;70045;40.200;44.582;2023-11-22T10:23:54;86856.81;;;11.15;28.64
80682;BME280;70045;40.200;44.582;2023-11-22T10:26:20;86863.31;;;10.99;28.56
80682;BME280;70045;40.200;44.582;2023-11-22T10:28:45;86857.06;;;10.93;29.18
80682;BME280;70045;40.200;44.582;2023-11-22T10:31:11;86868.69;;;11.12;29.09
80682;BME280;70045;40.200;44.582;2023-11-22T10:33:40;86870.47;;;11.19;28.13
80682;BME280;70045;40.200;44.582;2023-11-22T10:36:06;86864.94;;;11.17;28.14
80682;BME280;70045;40.200;44.582;2023-11-22T10:38:33;86864.19;;;11.16;28.25
80682;BME280;70045;40.200;44.582;2023-11-22T10:40:59;86868.78;;;11.05;28.56
80682;BME280;70045;40.200;44.582;2023-11-22T10:43:25;86853.59;;;11.03;28.40
80682;BME280;70045;40.200;44.582;2023-11-22T10:45:56;86849.63;;;10.95;28.12
80682;BME280;70045;40.200;44.582;2023-11-22T10:48:26;86865.31;;;10.84;28.24
80682;BME280;70045;40.200;44.582;2023-11-22T10:50:53;86860.94;;;10.78;28.00
80682;BME280;70045;40.200;44.582;2023-11-22T10:53:21;86851.28;;;10.82;28.57
80682;BME280;70045;40.200;44.582;2023-11-22T10:55:55;86856.47;;;10.82;28.66
80682;BME280;70045;40.200;44.582;2023-11-22T10:58:27;86850.59;;;10.78;29.49
80682;BME280;70045;40.200;44.582;2023-11-22T11:00:53;86852.91;;;10.68;29.39
80682;BME280;70045;40.200;44.582;2023-11-22T11:03:20;86854.50;;;10.59;29.16
80682;BME280;70045;40.200;44.582;2023-11-22T11:05:58;86858.56;;;10.60;28.97
80682;BME280;70045;40.200;44.582;2023-11-22T11:08:31;86850.03;;;10.63;29.03
80682;BME280;70045;40.200;44.582;2023-11-22T11:10:57;86854.03;;;10.67;29.20
80682;BME280;70045;40.200;44.582;2023-11-22T11:13:24;86855.94;;;10.63;29.09
80682;BME280;70045;40.200;44.582;2023-11-22T11:15:50;86857.75;;;10.66;29.98
80682;BME280;70045;40.200;44.582;2023-11-22T11:18:17;86857.34;;;10.71;30.40
80682;BME280;70045;40.200;44.582;2023-11-22T11:20:49;86856.19;;;10.72;29.08
80682;BME280;70045;40.200;44.582;2023-11-22T11:23:19;86865.47;;;10.73;28.74
80682;BME280;70045;40.200;44.582;2023-11-22T11:25:47;86855.84;;;10.70;28.31
80682;BME280;70045;40.200;44.582;2023-11-22T11:28:12;86861.81;;;10.67;28.89
80682;BME280;70045;40.200;44.582;2023-11-22T11:33:14;86867.38;;;10.66;29.50
80682;BME280;70045;40.200;44.582;2023-11-22T11:35:45;86866.28;;;10.67;30.69
80682;BME280;70045;40.200;44.582;2023-11-22T11:38:12;86852.38;;;10.50;30.59
80682;BME280;70045;40.200;44.582;2023-11-22T11:40:37;86864.66;;;10.46;30.39
80682;BME280;70045;40.200;44.582;2023-11-22T11:43:04;86857.56;;;10.50;30.08
80682;BME280;70045;40.200;44.582;2023-11-22T11:45:40;86862.06;;;10.46;30.11
80682;BME280;70045;40.200;44.582;2023-11-22T11:48:06;86860.88;;;10.54;29.74
80682;BME280;70045;40.200;44.582;2023-11-22T11:50:32;86865.53;;;10.66;29.76
80682;BME280;70045;40.200;44.582;2023-11-22T11:52:58;86869.19;;;10.69;28.72
80682;BME280;70045;40.200;44.582;2023-11-22T11:55:23;86867.84;;;10.57;29.88
80682;BME280;70045;40.200;44.582;2023-11-22T11:57:54;86865.72;;;10.52;29.41
80682;BME280;70045;40.200;44.582;2023-11-22T12:00:19;86872.44;;;10.46;29.86
80682;BME280;70045;40.200;44.582;2023-11-22T12:02:45;86872.44;;;10.46;28.96
80682;BME280;70045;40.200;44.582;2023-11-22T12:05:10;86863.91;;;10.45;29.11
80682;BME280;70045;40.200;44.582;2023-11-22T12:07:36;86873.91;;;10.47;29.92
80682;BME280;70045;40.200;44.582;2023-11-22T12:10:05;86877.59;;;10.46;29.81
80682;BME280;70045;40.200;44.582;2023-11-22T12:12:31;86847.13;;;10.19;30.17
80682;BME280;70045;40.200;44.582;2023-11-22T12:14:56;86871.16;;;10.23;30.72
80682;BME280;70045;40.200;44.582;2023-11-22T12:17:22;86883.31;;;10.30;30.23
80682;BME280;70045;40.200;44.582;2023-11-22T12:19:47;86884.47;;;10.22;30.02
80682;BME280;70045;40.200;44.582;2023-11-22T12:22:16;86894.53;;;10.16;30.18
80682;BME280;70045;40.200;44.582;2023-11-22T12:24:42;86886.00;;;10.15;29.90
80682;BME280;70045;40.200;44.582;2023-11-22T12:27:09;86894.16;;;10.17;29.78
80682;BME280;70045;40.200;44.582;2023-11-22T12:29:39;86883.09;;;10.10;30.48
80682;BME280;70045;40.200;44.582;2023-11-22T12:32:05;86893.81;;;10.12;30.14
80682;BME280;70045;40.200;44.582;2023-11-22T12:34:33;86887.44;;;10.20;29.89
80682;BME280;70045;40.200;44.582;2023-11-22T12:36:59;86887.75;;;10.26;30.15
80682;BME280;70045;40.200;44.582;2023-11-22T12:39:25;86889.28;;;10.23;30.13
80682;BME280;70045;40.200;44.582;2023-11-22T12:41:52;86890.03;;;10.20;29.88
80682;BME280;70045;40.200;44.582;2023-11-22T12:44:18;86886.78;;;10.12;30.09
80682;BME280;70045;40.200;44.582;2023-11-22T12:46:51;86892.72;;;10.13;30.06
80682;BME280;70045;40.200;44.582;2023-11-22T12:49:17;86863.34;;;9.85;30.77
80682;BME280;70045;40.200;44.582;2023-11-22T12:51:47;86864.03;;;9.89;30.23
80682;BME280;70045;40.200;44.582;2023-11-22T12:54:12;86895.78;;;10.01;31.13
80682;BME280;70045;40.200;44.582;2023-11-22T12:56:37;86903.97;;;9.95;30.98